sensor_id;sensor_type;location;lat;lon;timestamp;P1;durP1;ratioP1;P2;durP2;ratioP2
48241;SDS011;34041;51.812;4.622;2022-08-03T00:01:43;5.00;;;2.00;;
48241;SDS011;34041;51.812;4.622;2022-08-03T00:04:43;6.75;;;1.85;;
48241;SDS011;34041;51.812;4.622;2022-08-03T00:07:43;5.20;;;1.65;;
48241;SDS011;34041;51.812;4.622;2022-08-03T00:10:43;5.68;;;1.73;;
48241;SDS011;34041;51.812;4.622;2022-08-03T00:13:44;7.85;;;1.48;;
48241;SDS011;34041;51.812;4.622;2022-08-03T00:16:44;4.90;;;1.67;;
48241;SDS011;34041;51.812;4.622;2022-08-03T00:19:44;3.63;;;1.40;;
48241;SDS011;34041;51.812;4.622;2022-08-03T00:22:45;5.20;;;1.98;;
48241;SDS011;34041;51.812;4.622;2022-08-03T00:25:46;7.27;;;2.10;;
48241;SDS011;34041;51.812;4.622;2022-08-03T00:28:46;3.73;;;1.40;;
48241;SDS011;34041;51.812;4.622;2022-08-03T00:31:47;6.03;;;1.92;;
48241;SDS011;34041;51.812;4.622;2022-08-03T00:34:48;4.83;;;1.73;;
48241;SDS011;34041;51.812;4.622;2022-08-03T00:37:48;6.83;;;2.00;;
48241;SDS011;34041;51.812;4.622;2022-08-03T00:40:48;7.67;;;1.80;;
48241;SDS011;34041;51.812;4.622;2022-08-03T00:43:48;3.67;;;1.93;;
48241;SDS011;34041;51.812;4.622;2022-08-03T00:46:49;4.95;;;1.98;;
48241;SDS011;34041;51.812;4.622;2022-08-03T00:49:49;6.07;;;1.83;;
48241;SDS011;34041;51.812;4.622;2022-08-03T00:52:53;6.50;;;2.00;;
48241;SDS011;34041;51.812;4.622;2022-08-03T00:55:54;6.90;;;2.20;;
48241;SDS011;34041;51.812;4.622;2022-08-03T00:58:54;8.60;;;2.17;;
48241;SDS011;34041;51.812;4.622;2022-08-03T01:01:55;4.47;;;1.92;;
48241;SDS011;34041;51.812;4.622;2022-08-03T01:04:56;4.55;;;1.83;;
48241;SDS011;34041;51.812;4.622;2022-08-03T01:17:05;5.82;;;1.92;;
48241;SDS011;34041;51.812;4.622;2022-08-03T01:32:21;6.72;;;2.17;;
48241;SDS011;34041;51.812;4.622;2022-08-03T01:35:27;4.13;;;1.85;;
48241;SDS011;34041;51.812;4.622;2022-08-03T01:38:30;5.75;;;2.28;;
48241;SDS011;34041;51.812;4.622;2022-08-03T01:41:32;5.90;;;1.92;;
48241;SDS011;34041;51.812;4.622;2022-08-03T01:44:34;7.53;;;2.47;;
48241;SDS011;34041;51.812;4.622;2022-08-03T01:47:36;7.47;;;2.17;;
48241;SDS011;34041;51.812;4.622;2022-08-03T01:50:37;5.88;;;2.22;;
48241;SDS011;34041;51.812;4.622;2022-08-03T01:53:39;4.40;;;1.80;;
48241;SDS011;34041;51.812;4.622;2022-08-03T01:56:41;8.05;;;2.10;;
48241;SDS011;34041;51.812;4.622;2022-08-03T01:59:44;5.57;;;1.80;;
48241;SDS011;34041;51.812;4.622;2022-08-03T02:02:46;17.20;;;2.70;;
48241;SDS011;34041;51.812;4.622;2022-08-03T02:05:46;6.70;;;2.47;;
48241;SDS011;34041;51.812;4.622;2022-08-03T02:08:47;5.38;;;2.30;;
48241;SDS011;34041;51.812;4.622;2022-08-03T02:11:48;4.15;;;1.85;;
48241;SDS011;34041;51.812;4.622;2022-08-03T02:14:49;9.52;;;2.00;;
48241;SDS011;34041;51.812;4.622;2022-08-03T02:17:50;6.00;;;1.88;;
48241;SDS011;34041;51.812;4.622;2022-08-03T02:20:52;5.25;;;1.67;;
48241;SDS011;34041;51.812;4.622;2022-08-03T02:23:52;7.75;;;2.00;;
48241;SDS011;34041;51.812;4.622;2022-08-03T02:26:53;5.57;;;2.10;;
48241;SDS011;34041;51.812;4.622;2022-08-03T02:29:59;4.53;;;2.85;;
48241;SDS011;34041;51.812;4.622;2022-08-03T02:33:00;6.75;;;2.63;;
48241;SDS011;34041;51.812;4.622;2022-08-03T02:36:02;8.30;;;1.95;;
48241;SDS011;34041;51.812;4.622;2022-08-03T02:39:03;5.35;;;2.22;;
48241;SDS011;34041;51.812;4.622;2022-08-03T02:42:04;4.57;;;1.55;;
48241;SDS011;34041;51.812;4.622;2022-08-03T02:45:06;4.18;;;1.50;;
48241;SDS011;34041;51.812;4.622;2022-08-03T02:48:11;7.30;;;2.40;;
48241;SDS011;34041;51.812;4.622;2022-08-03T02:51:14;7.05;;;2.00;;
48241;SDS011;34041;51.812;4.622;2022-08-03T02:54:17;10.43;;;2.15;;
48241;SDS011;34041;51.812;4.622;2022-08-03T02:57:18;6.75;;;1.80;;
48241;SDS011;34041;51.812;4.622;2022-08-03T03:00:20;6.03;;;2.00;;
48241;SDS011;34041;51.812;4.622;2022-08-03T03:03:21;4.40;;;1.95;;
48241;SDS011;34041;51.812;4.622;2022-08-03T03:06:21;9.10;;;2.25;;
48241;SDS011;34041;51.812;4.622;2022-08-03T03:09:22;6.72;;;2.22;;
48241;SDS011;34041;51.812;4.622;2022-08-03T03:12:22;4.97;;;2.17;;
48241;SDS011;34041;51.812;4.622;2022-08-03T03:15:24;8.70;;;3.05;;
48241;SDS011;34041;51.812;4.622;2022-08-03T03:18:26;11.57;;;3.13;;
48241;SDS011;34041;51.812;4.622;2022-08-03T03:21:26;4.82;;;2.30;;
48241;SDS011;34041;51.812;4.622;2022-08-03T03:24:28;8.45;;;2.50;;
48241;SDS011;34041;51.812;4.622;2022-08-03T03:27:29;9.77;;;2.78;;
48241;SDS011;34041;51.812;4.622;2022-08-03T03:30:29;4.70;;;1.70;;
48241;SDS011;34041;51.812;4.622;2022-08-03T03:33:29;8.27;;;1.85;;
48241;SDS011;34041;51.812;4.622;2022-08-03T03:36:30;4.68;;;1.65;;
48241;SDS011;34041;51.812;4.622;2022-08-03T03:39:30;5.28;;;1.98;;
48241;SDS011;34041;51.812;4.622;2022-08-03T03:42:31;5.07;;;2.10;;
48241;SDS011;34041;51.812;4.622;2022-08-03T03:45:32;4.70;;;1.65;;
48241;SDS011;34041;51.812;4.622;2022-08-03T03:48:33;8.00;;;2.85;;
48241;SDS011;34041;51.812;4.622;2022-08-03T03:51:33;6.63;;;2.30;;
48241;SDS011;34041;51.812;4.622;2022-08-03T03:54:40;6.47;;;2.57;;
48241;SDS011;34041;51.812;4.622;2022-08-03T03:57:40;3.72;;;2.20;;
48241;SDS011;34041;51.812;4.622;2022-08-03T04:00:40;5.33;;;1.90;;
48241;SDS011;34041;51.812;4.622;2022-08-03T04:03:41;8.13;;;2.45;;
48241;SDS011;34041;51.812;4.622;2022-08-03T04:06:41;4.40;;;1.60;;
48241;SDS011;34041;51.812;4.622;2022-08-03T04:10:01;6.57;;;1.55;;
48241;SDS011;34041;51.812;4.622;2022-08-03T04:13:20;4.97;;;1.55;;
48241;SDS011;34041;51.812;4.622;2022-08-03T04:16:23;5.57;;;2.08;;
48241;SDS011;34041;51.812;4.622;2022-08-03T04:19:29;6.55;;;2.10;;
48241;SDS011;34041;51.812;4.622;2022-08-03T04:22:31;8.35;;;2.25;;
48241;SDS011;34041;51.812;4.622;2022-08-03T04:25:32;4.32;;;1.85;;
48241;SDS011;34041;51.812;4.622;2022-08-03T04:28:33;12.52;;;3.70;;
48241;SDS011;34041;51.812;4.622;2022-08-03T04:31:34;7.63;;;2.78;;
48241;SDS011;34041;51.812;4.622;2022-08-03T04:34:34;8.90;;;1.88;;
48241;SDS011;34041;51.812;4.622;2022-08-03T04:37:38;6.47;;;3.15;;
48241;SDS011;34041;51.812;4.622;2022-08-03T04:43:39;8.55;;;2.17;;
48241;SDS011;34041;51.812;4.622;2022-08-03T04:46:40;6.35;;;1.95;;
48241;SDS011;34041;51.812;4.622;2022-08-03T04:49:41;5.78;;;2.08;;
48241;SDS011;34041;51.812;4.622;2022-08-03T04:52:41;6.53;;;2.35;;
48241;SDS011;34041;51.812;4.622;2022-08-03T04:55:41;8.80;;;2.20;;
48241;SDS011;34041;51.812;4.622;2022-08-03T04:58:42;9.40;;;3.30;;
48241;SDS011;34041;51.812;4.622;2022-08-03T05:01:42;16.53;;;3.77;;
48241;SDS011;34041;51.812;4.622;2022-08-03T05:04:43;14.55;;;3.55;;
48241;SDS011;34041;51.812;4.622;2022-08-03T05:07:45;11.38;;;4.03;;
48241;SDS011;34041;51.812;4.622;2022-08-03T05:10:45;12.00;;;4.13;;
48241;SDS011;34041;51.812;4.622;2022-08-03T05:13:46;12.88;;;3.83;;
48241;SDS011;34041;51.812;4.622;2022-08-03T05:16:46;11.55;;;3.40;;
48241;SDS011;34041;51.812;4.622;2022-08-03T05:19:46;9.17;;;3.57;;
48241;SDS011;34041;51.812;4.622;2022-08-03T05:22:46;17.60;;;4.33;;
48241;SDS011;34041;51.812;4.622;2022-08-03T05:25:47;7.23;;;2.90;;
48241;SDS011;34041;51.812;4.622;2022-08-03T05:28:47;13.40;;;4.15;;
48241;SDS011;34041;51.812;4.622;2022-08-03T05:31:47;9.33;;;3.13;;
48241;SDS011;34041;51.812;4.622;2022-08-03T05:34:47;7.57;;;3.10;;
48241;SDS011;34041;51.812;4.622;2022-08-03T05:37:48;9.37;;;3.30;;
48241;SDS011;34041;51.812;4.622;2022-08-03T05:40:48;13.80;;;4.07;;
48241;SDS011;34041;51.812;4.622;2022-08-03T05:43:48;10.90;;;2.50;;
48241;SDS011;34041;51.812;4.622;2022-08-03T05:46:48;6.22;;;2.47;;
48241;SDS011;34041;51.812;4.622;2022-08-03T05:49:49;11.33;;;2.90;;
48241;SDS011;34041;51.812;4.622;2022-08-03T05:52:49;13.60;;;4.03;;
48241;SDS011;34041;51.812;4.622;2022-08-03T05:55:49;8.57;;;3.00;;
48241;SDS011;34041;51.812;4.622;2022-08-03T05:58:49;7.90;;;2.57;;
48241;SDS011;34041;51.812;4.622;2022-08-03T06:01:51;9.82;;;2.95;;
48241;SDS011;34041;51.812;4.622;2022-08-03T06:04:51;5.95;;;2.65;;
48241;SDS011;34041;51.812;4.622;2022-08-03T06:07:51;7.37;;;2.83;;
48241;SDS011;34041;51.812;4.622;2022-08-03T06:10:52;7.20;;;2.92;;
48241;SDS011;34041;51.812;4.622;2022-08-03T06:13:52;9.87;;;2.37;;
48241;SDS011;34041;51.812;4.622;2022-08-03T06:16:52;14.93;;;2.93;;
48241;SDS011;34041;51.812;4.622;2022-08-03T06:19:53;8.80;;;2.77;;
48241;SDS011;34041;51.812;4.622;2022-08-03T06:22:53;9.52;;;3.97;;
48241;SDS011;34041;51.812;4.622;2022-08-03T06:25:53;6.10;;;3.07;;
48241;SDS011;34041;51.812;4.622;2022-08-03T06:28:54;6.93;;;2.90;;
48241;SDS011;34041;51.812;4.622;2022-08-03T06:31:55;9.68;;;2.92;;
48241;SDS011;34041;51.812;4.622;2022-08-03T06:34:55;10.30;;;3.60;;
48241;SDS011;34041;51.812;4.622;2022-08-03T06:37:56;6.20;;;2.73;;
48241;SDS011;34041;51.812;4.622;2022-08-03T06:40:56;6.13;;;2.15;;
48241;SDS011;34041;51.812;4.622;2022-08-03T06:43:56;10.40;;;2.88;;
48241;SDS011;34041;51.812;4.622;2022-08-03T06:46:56;9.30;;;2.90;;
48241;SDS011;34041;51.812;4.622;2022-08-03T06:49:57;9.43;;;2.95;;
48241;SDS011;34041;51.812;4.622;2022-08-03T06:52:58;6.07;;;3.13;;
48241;SDS011;34041;51.812;4.622;2022-08-03T06:55:58;5.13;;;2.65;;
48241;SDS011;34041;51.812;4.622;2022-08-03T06:58:58;6.28;;;3.40;;
48241;SDS011;34041;51.812;4.622;2022-08-03T07:01:58;9.98;;;3.50;;
48241;SDS011;34041;51.812;4.622;2022-08-03T07:04:59;5.37;;;2.37;;
48241;SDS011;34041;51.812;4.622;2022-08-03T07:07:59;8.23;;;4.37;;
48241;SDS011;34041;51.812;4.622;2022-08-03T07:11:00;11.75;;;3.03;;
48241;SDS011;34041;51.812;4.622;2022-08-03T07:14:01;6.53;;;2.73;;
48241;SDS011;34041;51.812;4.622;2022-08-03T07:17:01;6.60;;;3.10;;
48241;SDS011;34041;51.812;4.622;2022-08-03T07:20:03;6.80;;;3.03;;
48241;SDS011;34041;51.812;4.622;2022-08-03T07:23:03;7.28;;;3.55;;
48241;SDS011;34041;51.812;4.622;2022-08-03T07:26:03;5.50;;;2.90;;
48241;SDS011;34041;51.812;4.622;2022-08-03T07:29:04;7.30;;;2.70;;
48241;SDS011;34041;51.812;4.622;2022-08-03T07:32:04;9.05;;;2.90;;
48241;SDS011;34041;51.812;4.622;2022-08-03T07:35:05;6.05;;;2.60;;
48241;SDS011;34041;51.812;4.622;2022-08-03T07:38:05;6.05;;;2.70;;
48241;SDS011;34041;51.812;4.622;2022-08-03T07:41:05;7.73;;;3.13;;
48241;SDS011;34041;51.812;4.622;2022-08-03T07:44:06;11.53;;;4.30;;
48241;SDS011;34041;51.812;4.622;2022-08-03T07:47:06;8.27;;;2.87;;
48241;SDS011;34041;51.812;4.622;2022-08-03T07:50:06;7.43;;;2.70;;
48241;SDS011;34041;51.812;4.622;2022-08-03T07:53:07;4.95;;;2.85;;
48241;SDS011;34041;51.812;4.622;2022-08-03T07:56:07;9.00;;;3.13;;
48241;SDS011;34041;51.812;4.622;2022-08-03T07:59:07;7.57;;;3.63;;
48241;SDS011;34041;51.812;4.622;2022-08-03T08:02:08;5.37;;;2.43;;
48241;SDS011;34041;51.812;4.622;2022-08-03T08:05:08;5.05;;;2.53;;
48241;SDS011;34041;51.812;4.622;2022-08-03T08:08:09;4.82;;;3.20;;
48241;SDS011;34041;51.812;4.622;2022-08-03T08:11:10;6.83;;;3.57;;
48241;SDS011;34041;51.812;4.622;2022-08-03T08:14:10;9.87;;;3.13;;
48241;SDS011;34041;51.812;4.622;2022-08-03T08:17:11;7.05;;;2.65;;
48241;SDS011;34041;51.812;4.622;2022-08-03T08:20:14;5.85;;;2.75;;
48241;SDS011;34041;51.812;4.622;2022-08-03T08:23:15;6.57;;;2.97;;
48241;SDS011;34041;51.812;4.622;2022-08-03T08:26:21;4.95;;;2.35;;
48241;SDS011;34041;51.812;4.622;2022-08-03T08:29:21;5.10;;;2.23;;
48241;SDS011;34041;51.812;4.622;2022-08-03T08:32:22;6.57;;;3.30;;
48241;SDS011;34041;51.812;4.622;2022-08-03T08:35:22;4.50;;;2.20;;
48241;SDS011;34041;51.812;4.622;2022-08-03T08:38:23;5.93;;;2.60;;
48241;SDS011;34041;51.812;4.622;2022-08-03T08:41:23;6.63;;;2.50;;
48241;SDS011;34041;51.812;4.622;2022-08-03T08:44:23;6.70;;;3.28;;
48241;SDS011;34041;51.812;4.622;2022-08-03T08:47:24;5.17;;;2.17;;
48241;SDS011;34041;51.812;4.622;2022-08-03T08:50:24;5.30;;;1.83;;
48241;SDS011;34041;51.812;4.622;2022-08-03T08:53:25;3.75;;;2.15;;
48241;SDS011;34041;51.812;4.622;2022-08-03T08:56:25;4.63;;;2.20;;
48241;SDS011;34041;51.812;4.622;2022-08-03T08:59:26;7.15;;;2.88;;
48241;SDS011;34041;51.812;4.622;2022-08-03T09:02:29;7.32;;;2.42;;
48241;SDS011;34041;51.812;4.622;2022-08-03T09:05:30;6.60;;;2.45;;
48241;SDS011;34041;51.812;4.622;2022-08-03T09:08:31;6.95;;;2.85;;
48241;SDS011;34041;51.812;4.622;2022-08-03T09:11:32;6.00;;;2.83;;
48241;SDS011;34041;51.812;4.622;2022-08-03T09:14:32;8.68;;;2.70;;
48241;SDS011;34041;51.812;4.622;2022-08-03T09:17:39;3.28;;;1.75;;
48241;SDS011;34041;51.812;4.622;2022-08-03T09:20:39;7.55;;;3.08;;
48241;SDS011;34041;51.812;4.622;2022-08-03T09:23:46;7.18;;;2.58;;
48241;SDS011;34041;51.812;4.622;2022-08-03T09:26:48;9.05;;;2.42;;
48241;SDS011;34041;51.812;4.622;2022-08-03T09:29:49;8.00;;;2.20;;
48241;SDS011;34041;51.812;4.622;2022-08-03T09:32:50;7.18;;;2.33;;
48241;SDS011;34041;51.812;4.622;2022-08-03T09:35:50;15.30;;;2.47;;
48241;SDS011;34041;51.812;4.622;2022-08-03T09:39:00;6.35;;;2.47;;
48241;SDS011;34041;51.812;4.622;2022-08-03T09:42:04;8.60;;;3.20;;
48241;SDS011;34041;51.812;4.622;2022-08-03T09:45:05;6.82;;;2.95;;
48241;SDS011;34041;51.812;4.622;2022-08-03T09:48:24;5.97;;;2.00;;
48241;SDS011;34041;51.812;4.622;2022-08-03T09:51:24;5.85;;;2.20;;
48241;SDS011;34041;51.812;4.622;2022-08-03T09:54:28;6.90;;;2.15;;
48241;SDS011;34041;51.812;4.622;2022-08-03T09:57:28;13.00;;;2.50;;
48241;SDS011;34041;51.812;4.622;2022-08-03T10:00:32;6.25;;;2.90;;
48241;SDS011;34041;51.812;4.622;2022-08-03T10:03:56;8.70;;;2.83;;
48241;SDS011;34041;51.812;4.622;2022-08-03T10:07:04;6.15;;;1.92;;
48241;SDS011;34041;51.812;4.622;2022-08-03T10:10:04;3.83;;;2.00;;
48241;SDS011;34041;51.812;4.622;2022-08-03T10:13:05;10.70;;;3.00;;
48241;SDS011;34041;51.812;4.622;2022-08-03T10:16:05;8.87;;;2.83;;
48241;SDS011;34041;51.812;4.622;2022-08-03T10:19:06;6.47;;;2.35;;
48241;SDS011;34041;51.812;4.622;2022-08-03T10:22:09;6.72;;;2.63;;
48241;SDS011;34041;51.812;4.622;2022-08-03T10:25:11;5.47;;;1.88;;
48241;SDS011;34041;51.812;4.622;2022-08-03T10:28:12;11.68;;;2.70;;
48241;SDS011;34041;51.812;4.622;2022-08-03T10:31:13;7.28;;;2.65;;
48241;SDS011;34041;51.812;4.622;2022-08-03T10:34:21;11.35;;;2.22;;
48241;SDS011;34041;51.812;4.622;2022-08-03T10:37:21;8.20;;;2.97;;
48241;SDS011;34041;51.812;4.622;2022-08-03T10:40:23;5.68;;;1.88;;
48241;SDS011;34041;51.812;4.622;2022-08-03T10:43:26;5.03;;;2.35;;
48241;SDS011;34041;51.812;4.622;2022-08-03T10:46:27;4.90;;;2.00;;
48241;SDS011;34041;51.812;4.622;2022-08-03T10:49:28;6.28;;;2.45;;
48241;SDS011;34041;51.812;4.622;2022-08-03T10:52:28;8.40;;;2.95;;
48241;SDS011;34041;51.812;4.622;2022-08-03T10:55:36;6.87;;;2.23;;
48241;SDS011;34041;51.812;4.622;2022-08-03T10:58:55;7.82;;;1.98;;
48241;SDS011;34041;51.812;4.622;2022-08-03T11:01:55;7.17;;;2.20;;
48241;SDS011;34041;51.812;4.622;2022-08-03T11:05:23;4.97;;;2.13;;
48241;SDS011;34041;51.812;4.622;2022-08-03T11:08:25;6.63;;;2.22;;
48241;SDS011;34041;51.812;4.622;2022-08-03T11:11:25;11.35;;;2.95;;
48241;SDS011;34041;51.812;4.622;2022-08-03T11:14:27;3.40;;;1.95;;
48241;SDS011;34041;51.812;4.622;2022-08-03T11:17:27;3.08;;;2.08;;
48241;SDS011;34041;51.812;4.622;2022-08-03T11:20:47;6.60;;;1.93;;
48241;SDS011;34041;51.812;4.622;2022-08-03T11:23:48;7.07;;;2.58;;
48241;SDS011;34041;51.812;4.622;2022-08-03T11:26:54;7.97;;;3.03;;
48241;SDS011;34041;51.812;4.622;2022-08-03T11:30:09;5.10;;;2.70;;
48241;SDS011;34041;51.812;4.622;2022-08-03T11:33:09;6.70;;;2.80;;
48241;SDS011;34041;51.812;4.622;2022-08-03T11:36:27;6.22;;;2.15;;
48241;SDS011;34041;51.812;4.622;2022-08-03T11:39:40;8.57;;;3.17;;
48241;SDS011;34041;51.812;4.622;2022-08-03T11:42:42;6.20;;;2.10;;
48241;SDS011;34041;51.812;4.622;2022-08-03T11:45:55;6.15;;;2.60;;
48241;SDS011;34041;51.812;4.622;2022-08-03T11:49:00;6.60;;;2.28;;
48241;SDS011;34041;51.812;4.622;2022-08-03T11:52:02;5.50;;;2.15;;
48241;SDS011;34041;51.812;4.622;2022-08-03T11:55:07;6.45;;;2.30;;
48241;SDS011;34041;51.812;4.622;2022-08-03T11:58:07;5.13;;;2.97;;
48241;SDS011;34041;51.812;4.622;2022-08-03T12:01:08;6.60;;;2.83;;
48241;SDS011;34041;51.812;4.622;2022-08-03T12:04:10;7.72;;;2.85;;
48241;SDS011;34041;51.812;4.622;2022-08-03T12:07:10;9.38;;;3.03;;
48241;SDS011;34041;51.812;4.622;2022-08-03T12:10:11;6.80;;;2.57;;
48241;SDS011;34041;51.812;4.622;2022-08-03T12:13:12;6.25;;;3.20;;
48241;SDS011;34041;51.812;4.622;2022-08-03T12:16:23;9.25;;;2.70;;
48241;SDS011;34041;51.812;4.622;2022-08-03T12:19:24;6.50;;;3.22;;
48241;SDS011;34041;51.812;4.622;2022-08-03T12:22:31;4.93;;;2.33;;
48241;SDS011;34041;51.812;4.622;2022-08-03T12:25:32;5.05;;;2.13;;
48241;SDS011;34041;51.812;4.622;2022-08-03T12:28:32;5.80;;;3.13;;
48241;SDS011;34041;51.812;4.622;2022-08-03T12:31:32;3.78;;;2.45;;
48241;SDS011;34041;51.812;4.622;2022-08-03T12:34:44;5.22;;;2.35;;
48241;SDS011;34041;51.812;4.622;2022-08-03T12:37:46;4.50;;;2.50;;
48241;SDS011;34041;51.812;4.622;2022-08-03T12:41:00;5.40;;;2.58;;
48241;SDS011;34041;51.812;4.622;2022-08-03T12:44:03;3.63;;;2.25;;
48241;SDS011;34041;51.812;4.622;2022-08-03T12:47:04;5.07;;;2.22;;
48241;SDS011;34041;51.812;4.622;2022-08-03T12:50:05;11.35;;;3.05;;
48241;SDS011;34041;51.812;4.622;2022-08-03T12:53:09;6.63;;;3.47;;
48241;SDS011;34041;51.812;4.622;2022-08-03T12:56:09;4.37;;;2.43;;
48241;SDS011;34041;51.812;4.622;2022-08-03T12:59:22;3.60;;;2.03;;
48241;SDS011;34041;51.812;4.622;2022-08-03T13:02:23;6.13;;;2.10;;
48241;SDS011;34041;51.812;4.622;2022-08-03T13:05:23;6.50;;;2.67;;
48241;SDS011;34041;51.812;4.622;2022-08-03T13:08:24;3.57;;;2.00;;
48241;SDS011;34041;51.812;4.622;2022-08-03T13:11:25;4.85;;;2.40;;
48241;SDS011;34041;51.812;4.622;2022-08-03T13:14:25;4.97;;;2.67;;
48241;SDS011;34041;51.812;4.622;2022-08-03T13:17:26;4.95;;;2.35;;
48241;SDS011;34041;51.812;4.622;2022-08-03T13:20:26;5.35;;;2.58;;
48241;SDS011;34041;51.812;4.622;2022-08-03T13:23:27;6.00;;;2.53;;
48241;SDS011;34041;51.812;4.622;2022-08-03T13:26:27;4.80;;;2.03;;
48241;SDS011;34041;51.812;4.622;2022-08-03T13:29:27;7.53;;;3.50;;
48241;SDS011;34041;51.812;4.622;2022-08-03T13:32:27;6.13;;;3.00;;
48241;SDS011;34041;51.812;4.622;2022-08-03T13:35:28;3.97;;;1.87;;
48241;SDS011;34041;51.812;4.622;2022-08-03T13:38:28;4.03;;;2.43;;
48241;SDS011;34041;51.812;4.622;2022-08-03T13:41:28;4.73;;;2.20;;
48241;SDS011;34041;51.812;4.622;2022-08-03T13:44:28;4.32;;;2.22;;
48241;SDS011;34041;51.812;4.622;2022-08-03T13:47:29;2.60;;;1.70;;
48241;SDS011;34041;51.812;4.622;2022-08-03T13:50:29;3.72;;;2.10;;
48241;SDS011;34041;51.812;4.622;2022-08-03T13:53:30;3.97;;;2.00;;
48241;SDS011;34041;51.812;4.622;2022-08-03T13:56:30;6.13;;;2.00;;
48241;SDS011;34041;51.812;4.622;2022-08-03T13:59:30;7.10;;;2.42;;
48241;SDS011;34041;51.812;4.622;2022-08-03T14:02:31;5.00;;;2.60;;
48241;SDS011;34041;51.812;4.622;2022-08-03T14:05:31;7.43;;;2.07;;
48241;SDS011;34041;51.812;4.622;2022-08-03T14:08:31;4.82;;;2.17;;
48241;SDS011;34041;51.812;4.622;2022-08-03T14:11:32;4.43;;;2.37;;
48241;SDS011;34041;51.812;4.622;2022-08-03T14:14:32;6.47;;;2.67;;
48241;SDS011;34041;51.812;4.622;2022-08-03T14:17:33;6.63;;;2.07;;
48241;SDS011;34041;51.812;4.622;2022-08-03T14:20:33;3.63;;;2.13;;
48241;SDS011;34041;51.812;4.622;2022-08-03T14:23:33;3.90;;;1.73;;
48241;SDS011;34041;51.812;4.622;2022-08-03T14:26:34;5.50;;;2.55;;
48241;SDS011;34041;51.812;4.622;2022-08-03T14:29:34;5.87;;;2.33;;
48241;SDS011;34041;51.812;4.622;2022-08-03T14:32:34;4.63;;;2.53;;
48241;SDS011;34041;51.812;4.622;2022-08-03T14:35:35;2.20;;;1.53;;
48241;SDS011;34041;51.812;4.622;2022-08-03T14:38:35;4.72;;;2.00;;
48241;SDS011;34041;51.812;4.622;2022-08-03T14:41:35;7.67;;;2.40;;
48241;SDS011;34041;51.812;4.622;2022-08-03T14:44:36;4.20;;;2.15;;
48241;SDS011;34041;51.812;4.622;2022-08-03T14:47:36;4.77;;;2.37;;
48241;SDS011;34041;51.812;4.622;2022-08-03T14:50:36;4.63;;;1.97;;
48241;SDS011;34041;51.812;4.622;2022-08-03T14:53:36;6.00;;;1.93;;
48241;SDS011;34041;51.812;4.622;2022-08-03T14:56:36;3.23;;;2.30;;
48241;SDS011;34041;51.812;4.622;2022-08-03T14:59:37;4.47;;;2.27;;
48241;SDS011;34041;51.812;4.622;2022-08-03T15:02:37;6.97;;;3.07;;
48241;SDS011;34041;51.812;4.622;2022-08-03T15:05:37;10.40;;;3.67;;
48241;SDS011;34041;51.812;4.622;2022-08-03T15:08:37;4.03;;;2.27;;
48241;SDS011;34041;51.812;4.622;2022-08-03T15:11:38;4.18;;;2.42;;
48241;SDS011;34041;51.812;4.622;2022-08-03T15:14:38;4.45;;;2.65;;
48241;SDS011;34041;51.812;4.622;2022-08-03T15:17:38;5.18;;;2.17;;
48241;SDS011;34041;51.812;4.622;2022-08-03T15:20:38;3.53;;;1.83;;
48241;SDS011;34041;51.812;4.622;2022-08-03T15:23:39;4.93;;;1.77;;
48241;SDS011;34041;51.812;4.622;2022-08-03T15:26:39;5.67;;;2.00;;
48241;SDS011;34041;51.812;4.622;2022-08-03T15:29:39;3.23;;;2.00;;
48241;SDS011;34041;51.812;4.622;2022-08-03T15:32:39;3.57;;;1.97;;
48241;SDS011;34041;51.812;4.622;2022-08-03T15:35:39;4.27;;;1.57;;
48241;SDS011;34041;51.812;4.622;2022-08-03T15:38:40;4.15;;;1.77;;
48241;SDS011;34041;51.812;4.622;2022-08-03T15:41:40;5.93;;;2.13;;
48241;SDS011;34041;51.812;4.622;2022-08-03T15:44:41;3.27;;;1.83;;
48241;SDS011;34041;51.812;4.622;2022-08-03T15:47:41;5.17;;;1.83;;
48241;SDS011;34041;51.812;4.622;2022-08-03T15:50:41;3.73;;;1.70;;
48241;SDS011;34041;51.812;4.622;2022-08-03T15:53:42;3.40;;;1.63;;
48241;SDS011;34041;51.812;4.622;2022-08-03T15:56:42;3.40;;;1.92;;
48241;SDS011;34041;51.812;4.622;2022-08-03T15:59:44;3.30;;;2.10;;
48241;SDS011;34041;51.812;4.622;2022-08-03T16:02:44;4.40;;;2.13;;
48241;SDS011;34041;51.812;4.622;2022-08-03T16:05:44;5.30;;;1.70;;
48241;SDS011;34041;51.812;4.622;2022-08-03T16:08:45;2.50;;;1.90;;
48241;SDS011;34041;51.812;4.622;2022-08-03T16:11:45;1.55;;;0.90;;
48241;SDS011;34041;51.812;4.622;2022-08-03T16:14:46;4.97;;;1.70;;
48241;SDS011;34041;51.812;4.622;2022-08-03T16:17:46;4.77;;;1.80;;
48241;SDS011;34041;51.812;4.622;2022-08-03T16:20:46;4.50;;;1.73;;
48241;SDS011;34041;51.812;4.622;2022-08-03T16:23:47;3.78;;;2.03;;
48241;SDS011;34041;51.812;4.622;2022-08-03T16:26:47;3.15;;;1.52;;
48241;SDS011;34041;51.812;4.622;2022-08-03T16:29:47;4.87;;;2.10;;
48241;SDS011;34041;51.812;4.622;2022-08-03T16:32:48;4.35;;;1.70;;
48241;SDS011;34041;51.812;4.622;2022-08-03T16:35:48;3.17;;;2.15;;
48241;SDS011;34041;51.812;4.622;2022-08-03T16:38:48;2.90;;;1.70;;
48241;SDS011;34041;51.812;4.622;2022-08-03T16:41:48;3.73;;;1.80;;
48241;SDS011;34041;51.812;4.622;2022-08-03T16:44:49;6.30;;;1.93;;
48241;SDS011;34041;51.812;4.622;2022-08-03T16:47:49;3.10;;;1.77;;
48241;SDS011;34041;51.812;4.622;2022-08-03T16:50:50;3.47;;;2.00;;
48241;SDS011;34041;51.812;4.622;2022-08-03T16:53:50;2.80;;;1.60;;
48241;SDS011;34041;51.812;4.622;2022-08-03T16:56:50;4.57;;;1.70;;
48241;SDS011;34041;51.812;4.622;2022-08-03T16:59:50;4.80;;;1.30;;
48241;SDS011;34041;51.812;4.622;2022-08-03T17:02:50;3.27;;;1.60;;
48241;SDS011;34041;51.812;4.622;2022-08-03T17:05:51;3.13;;;1.60;;
48241;SDS011;34041;51.812;4.622;2022-08-03T17:08:52;3.22;;;1.70;;
48241;SDS011;34041;51.812;4.622;2022-08-03T17:11:52;5.13;;;1.75;;
48241;SDS011;34041;51.812;4.622;2022-08-03T17:14:53;3.57;;;1.63;;
48241;SDS011;34041;51.812;4.622;2022-08-03T17:18:26;2.63;;;1.42;;
48241;SDS011;34041;51.812;4.622;2022-08-03T17:21:30;3.95;;;1.63;;
48241;SDS011;34041;51.812;4.622;2022-08-03T17:27:30;3.70;;;1.63;;
48241;SDS011;34041;51.812;4.622;2022-08-03T17:30:31;2.67;;;1.50;;
48241;SDS011;34041;51.812;4.622;2022-08-03T17:33:52;4.50;;;1.67;;
48241;SDS011;34041;51.812;4.622;2022-08-03T17:36:53;4.53;;;1.70;;
48241;SDS011;34041;51.812;4.622;2022-08-03T17:39:54;5.15;;;1.58;;
48241;SDS011;34041;51.812;4.622;2022-08-03T17:42:54;3.97;;;1.83;;
48241;SDS011;34041;51.812;4.622;2022-08-03T17:45:54;4.00;;;1.70;;
48241;SDS011;34041;51.812;4.622;2022-08-03T17:48:55;2.42;;;1.40;;
48241;SDS011;34041;51.812;4.622;2022-08-03T17:51:56;5.22;;;2.03;;
48241;SDS011;34041;51.812;4.622;2022-08-03T17:55:00;6.35;;;2.10;;
48241;SDS011;34041;51.812;4.622;2022-08-03T17:58:03;4.43;;;1.60;;
48241;SDS011;34041;51.812;4.622;2022-08-03T18:01:05;4.72;;;1.80;;
48241;SDS011;34041;51.812;4.622;2022-08-03T18:04:27;4.53;;;1.73;;
48241;SDS011;34041;51.812;4.622;2022-08-03T18:07:27;3.40;;;1.20;;
48241;SDS011;34041;51.812;4.622;2022-08-03T18:10:32;4.05;;;1.38;;
48241;SDS011;34041;51.812;4.622;2022-08-03T18:13:40;5.75;;;2.20;;
48241;SDS011;34041;51.812;4.622;2022-08-03T18:19:42;6.63;;;1.37;;
48241;SDS011;34041;51.812;4.622;2022-08-03T18:22:43;3.50;;;1.13;;
48241;SDS011;34041;51.812;4.622;2022-08-03T18:25:44;3.42;;;1.35;;
48241;SDS011;34041;51.812;4.622;2022-08-03T18:28:44;3.67;;;1.40;;
48241;SDS011;34041;51.812;4.622;2022-08-03T18:31:47;2.80;;;1.75;;
48241;SDS011;34041;51.812;4.622;2022-08-03T18:34:47;4.20;;;1.77;;
48241;SDS011;34041;51.812;4.622;2022-08-03T18:37:48;2.83;;;1.80;;
48241;SDS011;34041;51.812;4.622;2022-08-03T18:40:49;5.63;;;1.98;;
48241;SDS011;34041;51.812;4.622;2022-08-03T18:43:50;3.47;;;1.50;;